sensor_id;sensor_type;location;lat;lon;timestamp;temperature;humidity
73112;HTU21D;61301;51.956;5.876;2024-01-07T00:01:24;8.30;57.35
73112;HTU21D;61301;51.956;5.876;2024-01-07T00:03:51;8.29;57.19
73112;HTU21D;61301;51.956;5.876;2024-01-07T00:06:18;8.37;57.78
73112;HTU21D;61301;51.956;5.876;2024-01-07T00:08:44;8.36;57.00
73112;HTU21D;61301;51.956;5.876;2024-01-07T00:11:10;8.27;57.27
73112;HTU21D;61301;51.956;5.876;2024-01-07T00:13:36;8.17;57.42
73112;HTU21D;61301;51.956;5.876;2024-01-07T00:16:02;8.18;57.61
73112;HTU21D;61301;51.956;5.876;2024-01-07T00:18:28;8.16;57.84
73112;HTU21D;61301;51.956;5.876;2024-01-07T00:20:54;8.35;58.12
73112;HTU21D;61301;51.956;5.876;2024-01-07T00:23:20;8.37;58.28
73112;HTU21D;61301;51.956;5.876;2024-01-07T00:25:47;8.46;58.17
73112;HTU21D;61301;51.956;5.876;2024-01-07T00:28:13;8.49;58.08
73112;HTU21D;61301;51.956;5.876;2024-01-07T00:30:39;8.58;58.00
73112;HTU21D;61301;51.956;5.876;2024-01-07T00:33:05;8.52;58.22
73112;HTU21D;61301;51.956;5.876;2024-01-07T00:35:32;8.50;58.27
73112;HTU21D;61301;51.956;5.876;2024-01-07T00:37:58;8.47;58.14
73112;HTU21D;61301;51.956;5.876;2024-01-07T00:40:24;8.44;58.12
73112;HTU21D;61301;51.956;5.876;2024-01-07T00:42:50;8.34;57.83
73112;HTU21D;61301;51.956;5.876;2024-01-07T00:45:17;8.22;57.67
73112;HTU21D;61301;51.956;5.876;2024-01-07T00:47:44;8.02;57.57
73112;HTU21D;61301;51.956;5.876;2024-01-07T00:50:10;7.91;58.19
73112;HTU21D;61301;51.956;5.876;2024-01-07T00:52:36;7.97;57.96
73112;HTU21D;61301;51.956;5.876;2024-01-07T00:55:04;8.00;57.78
73112;HTU21D;61301;51.956;5.876;2024-01-07T00:57:30;7.92;58.01
73112;HTU21D;61301;51.956;5.876;2024-01-07T00:59:56;7.99;58.32
73112;HTU21D;61301;51.956;5.876;2024-01-07T01:02:22;7.93;57.65
73112;HTU21D;61301;51.956;5.876;2024-01-07T01:04:48;7.84;57.87
73112;HTU21D;61301;51.956;5.876;2024-01-07T01:07:14;7.76;58.08
73112;HTU21D;61301;51.956;5.876;2024-01-07T01:09:40;7.82;58.53
73112;HTU21D;61301;51.956;5.876;2024-01-07T01:12:06;7.78;58.12
73112;HTU21D;61301;51.956;5.876;2024-01-07T01:14:32;7.75;58.03
73112;HTU21D;61301;51.956;5.876;2024-01-07T01:16:58;7.63;58.15
73112;HTU21D;61301;51.956;5.876;2024-01-07T01:19:24;7.69;57.75
73112;HTU21D;61301;51.956;5.876;2024-01-07T01:21:50;7.67;58.03
73112;HTU21D;61301;51.956;5.876;2024-01-07T01:24:16;7.63;57.92
73112;HTU21D;61301;51.956;5.876;2024-01-07T01:26:42;7.76;57.88
73112;HTU21D;61301;51.956;5.876;2024-01-07T01:29:08;7.85;57.68
73112;HTU21D;61301;51.956;5.876;2024-01-07T01:31:34;7.79;57.61
73112;HTU21D;61301;51.956;5.876;2024-01-07T01:34:00;7.70;58.18
73112;HTU21D;61301;51.956;5.876;2024-01-07T01:36:26;7.71;57.96
73112;HTU21D;61301;51.956;5.876;2024-01-07T01:38:52;7.74;58.33
73112;HTU21D;61301;51.956;5.876;2024-01-07T01:41:18;7.68;57.87
73112;HTU21D;61301;51.956;5.876;2024-01-07T01:43:44;7.60;57.87
73112;HTU21D;61301;51.956;5.876;2024-01-07T01:46:12;7.53;57.58
73112;HTU21D;61301;51.956;5.876;2024-01-07T01:48:39;7.44;57.83
73112;HTU21D;61301;51.956;5.876;2024-01-07T01:51:05;7.34;57.96
73112;HTU21D;61301;51.956;5.876;2024-01-07T01:53:32;7.41;58.26
73112;HTU21D;61301;51.956;5.876;2024-01-07T01:56:01;7.53;58.83
73112;HTU21D;61301;51.956;5.876;2024-01-07T01:58:29;7.62;58.20
73112;HTU21D;61301;51.956;5.876;2024-01-07T02:00:56;7.57;58.20
73112;HTU21D;61301;51.956;5.876;2024-01-07T02:03:23;7.60;58.25
73112;HTU21D;61301;51.956;5.876;2024-01-07T02:05:49;7.50;58.13
73112;HTU21D;61301;51.956;5.876;2024-01-07T02:08:17;7.46;57.92
73112;HTU21D;61301;51.956;5.876;2024-01-07T02:10:44;7.33;57.93
73112;HTU21D;61301;51.956;5.876;2024-01-07T02:13:10;7.17;58.18
73112;HTU21D;61301;51.956;5.876;2024-01-07T02:15:36;7.20;58.88
73112;HTU21D;61301;51.956;5.876;2024-01-07T02:18:03;7.20;58.58
73112;HTU21D;61301;51.956;5.876;2024-01-07T02:20:29;7.22;59.12
73112;HTU21D;61301;51.956;5.876;2024-01-07T02:22:55;7.31;59.32
73112;HTU21D;61301;51.956;5.876;2024-01-07T02:25:24;7.29;59.01
73112;HTU21D;61301;51.956;5.876;2024-01-07T02:27:50;7.19;58.84
73112;HTU21D;61301;51.956;5.876;2024-01-07T02:30:16;7.13;58.87
73112;HTU21D;61301;51.956;5.876;2024-01-07T02:32:43;7.05;59.12
73112;HTU21D;61301;51.956;5.876;2024-01-07T02:35:09;7.10;59.41
73112;HTU21D;61301;51.956;5.876;2024-01-07T02:37:35;7.11;59.17
73112;HTU21D;61301;51.956;5.876;2024-01-07T02:40:02;7.14;59.48
73112;HTU21D;61301;51.956;5.876;2024-01-07T02:42:28;7.09;59.41
73112;HTU21D;61301;51.956;5.876;2024-01-07T02:44:54;7.08;59.39
73112;HTU21D;61301;51.956;5.876;2024-01-07T02:47:20;7.02;59.46
73112;HTU21D;61301;51.956;5.876;2024-01-07T02:49:46;7.02;59.52
73112;HTU21D;61301;51.956;5.876;2024-01-07T02:52:12;7.05;59.61
73112;HTU21D;61301;51.956;5.876;2024-01-07T02:54:38;7.01;59.09
73112;HTU21D;61301;51.956;5.876;2024-01-07T02:57:04;6.94;59.29
73112;HTU21D;61301;51.956;5.876;2024-01-07T02:59:30;6.91;59.28
73112;HTU21D;61301;51.956;5.876;2024-01-07T03:01:56;6.94;59.73
73112;HTU21D;61301;51.956;5.876;2024-01-07T03:04:22;7.04;59.76
73112;HTU21D;61301;51.956;5.876;2024-01-07T03:06:48;7.14;59.17
73112;HTU21D;61301;51.956;5.876;2024-01-07T03:09:14;7.12;58.96
73112;HTU21D;61301;51.956;5.876;2024-01-07T03:11:41;7.00;58.87
73112;HTU21D;61301;51.956;5.876;2024-01-07T03:14:07;6.97;59.20
73112;HTU21D;61301;51.956;5.876;2024-01-07T03:16:33;7.11;58.93
73112;HTU21D;61301;51.956;5.876;2024-01-07T03:18:59;7.15;59.28
73112;HTU21D;61301;51.956;5.876;2024-01-07T03:21:25;7.13;58.84
73112;HTU21D;61301;51.956;5.876;2024-01-07T03:23:51;7.13;58.70
73112;HTU21D;61301;51.956;5.876;2024-01-07T03:26:18;7.08;58.99
73112;HTU21D;61301;51.956;5.876;2024-01-07T03:28:45;7.04;58.88
73112;HTU21D;61301;51.956;5.876;2024-01-07T03:31:14;7.08;59.19
73112;HTU21D;61301;51.956;5.876;2024-01-07T03:33:42;7.07;59.09
73112;HTU21D;61301;51.956;5.876;2024-01-07T03:36:10;7.07;58.58
73112;HTU21D;61301;51.956;5.876;2024-01-07T03:38:36;7.00;58.29
73112;HTU21D;61301;51.956;5.876;2024-01-07T03:41:03;6.90;58.32
73112;HTU21D;61301;51.956;5.876;2024-01-07T03:43:29;6.87;58.43
73112;HTU21D;61301;51.956;5.876;2024-01-07T03:45:55;6.86;58.43
73112;HTU21D;61301;51.956;5.876;2024-01-07T03:48:21;6.80;58.51
73112;HTU21D;61301;51.956;5.876;2024-01-07T03:50:47;6.75;58.67
73112;HTU21D;61301;51.956;5.876;2024-01-07T03:53:15;6.73;58.82
73112;HTU21D;61301;51.956;5.876;2024-01-07T03:55:42;6.78;58.77
73112;HTU21D;61301;51.956;5.876;2024-01-07T03:58:08;6.88;58.49
73112;HTU21D;61301;51.956;5.876;2024-01-07T04:00:34;6.84;58.77
73112;HTU21D;61301;51.956;5.876;2024-01-07T04:03:01;6.86;58.61
73112;HTU21D;61301;51.956;5.876;2024-01-07T04:05:27;6.86;58.32
73112;HTU21D;61301;51.956;5.876;2024-01-07T04:07:55;6.78;58.25
73112;HTU21D;61301;51.956;5.876;2024-01-07T04:10:21;6.73;58.49
73112;HTU21D;61301;51.956;5.876;2024-01-07T04:12:47;6.76;58.34
73112;HTU21D;61301;51.956;5.876;2024-01-07T04:15:13;6.74;58.43
73112;HTU21D;61301;51.956;5.876;2024-01-07T04:17:39;6.74;58.23
73112;HTU21D;61301;51.956;5.876;2024-01-07T04:20:06;6.75;58.61
73112;HTU21D;61301;51.956;5.876;2024-01-07T04:22:32;6.76;58.51
73112;HTU21D;61301;51.956;5.876;2024-01-07T04:24:58;6.72;58.32
73112;HTU21D;61301;51.956;5.876;2024-01-07T04:27:24;6.72;58.31
73112;HTU21D;61301;51.956;5.876;2024-01-07T04:29:53;6.60;57.99
73112;HTU21D;61301;51.956;5.876;2024-01-07T04:32:22;6.57;58.63
73112;HTU21D;61301;51.956;5.876;2024-01-07T04:34:48;6.59;58.86
73112;HTU21D;61301;51.956;5.876;2024-01-07T04:37:14;6.63;58.84
73112;HTU21D;61301;51.956;5.876;2024-01-07T04:39:40;6.71;58.81
73112;HTU21D;61301;51.956;5.876;2024-01-07T04:42:06;6.75;58.79
73112;HTU21D;61301;51.956;5.876;2024-01-07T04:44:32;6.80;58.85
73112;HTU21D;61301;51.956;5.876;2024-01-07T04:46:58;6.85;58.35
73112;HTU21D;61301;51.956;5.876;2024-01-07T04:49:24;6.84;58.60
73112;HTU21D;61301;51.956;5.876;2024-01-07T04:51:50;6.85;58.18
73112;HTU21D;61301;51.956;5.876;2024-01-07T04:54:16;6.83;58.35
73112;HTU21D;61301;51.956;5.876;2024-01-07T04:56:42;6.89;58.58
73112;HTU21D;61301;51.956;5.876;2024-01-07T04:59:08;6.94;58.44
73112;HTU21D;61301;51.956;5.876;2024-01-07T05:01:34;7.01;58.05
73112;HTU21D;61301;51.956;5.876;2024-01-07T05:04:02;6.94;57.48
73112;HTU21D;61301;51.956;5.876;2024-01-07T05:06:28;6.79;57.42
73112;HTU21D;61301;51.956;5.876;2024-01-07T05:08:54;6.74;57.71
73112;HTU21D;61301;51.956;5.876;2024-01-07T05:11:20;6.79;57.77
73112;HTU21D;61301;51.956;5.876;2024-01-07T05:13:46;6.72;57.83
73112;HTU21D;61301;51.956;5.876;2024-01-07T05:16:19;6.94;57.53
73112;HTU21D;61301;51.956;5.876;2024-01-07T05:18:45;6.80;57.82
73112;HTU21D;61301;51.956;5.876;2024-01-07T05:21:15;6.75;57.41
73112;HTU21D;61301;51.956;5.876;2024-01-07T05:23:41;6.74;57.35
73112;HTU21D;61301;51.956;5.876;2024-01-07T05:26:07;6.69;57.51
73112;HTU21D;61301;51.956;5.876;2024-01-07T05:28:33;6.67;57.67
73112;HTU21D;61301;51.956;5.876;2024-01-07T05:30:59;6.63;57.46
73112;HTU21D;61301;51.956;5.876;2024-01-07T05:33:25;6.58;57.26
73112;HTU21D;61301;51.956;5.876;2024-01-07T05:35:51;6.55;57.22
73112;HTU21D;61301;51.956;5.876;2024-01-07T05:38:17;6.52;57.20
73112;HTU21D;61301;51.956;5.876;2024-01-07T05:40:43;6.44;57.37
73112;HTU21D;61301;51.956;5.876;2024-01-07T05:43:09;6.44;57.67
73112;HTU21D;61301;51.956;5.876;2024-01-07T05:45:35;6.54;57.44
73112;HTU21D;61301;51.956;5.876;2024-01-07T05:48:01;6.57;57.67
73112;HTU21D;61301;51.956;5.876;2024-01-07T05:50:27;6.60;57.42
73112;HTU21D;61301;51.956;5.876;2024-01-07T05:52:53;6.59;57.30
73112;HTU21D;61301;51.956;5.876;2024-01-07T05:55:19;6.70;57.39
73112;HTU21D;61301;51.956;5.876;2024-01-07T05:57:45;6.70;57.08
73112;HTU21D;61301;51.956;5.876;2024-01-07T06:00:11;6.64;56.96
73112;HTU21D;61301;51.956;5.876;2024-01-07T06:02:40;6.57;57.13
73112;HTU21D;61301;51.956;5.876;2024-01-07T06:05:07;6.63;57.57
73112;HTU21D;61301;51.956;5.876;2024-01-07T06:07:33;6.61;56.71
73112;HTU21D;61301;51.956;5.876;2024-01-07T06:09:59;6.59;56.93
73112;HTU21D;61301;51.956;5.876;2024-01-07T06:12:25;6.57;57.11
73112;HTU21D;61301;51.956;5.876;2024-01-07T06:14:51;6.59;57.46
73112;HTU21D;61301;51.956;5.876;2024-01-07T06:17:17;6.65;57.19
73112;HTU21D;61301;51.956;5.876;2024-01-07T06:19:43;6.70;57.17
73112;HTU21D;61301;51.956;5.876;2024-01-07T06:22:09;6.67;57.31
73112;HTU21D;61301;51.956;5.876;2024-01-07T06:24:35;6.84;57.19
73112;HTU21D;61301;51.956;5.876;2024-01-07T06:27:01;6.78;56.99
73112;HTU21D;61301;51.956;5.876;2024-01-07T06:29:29;6.72;56.77
73112;HTU21D;61301;51.956;5.876;2024-01-07T06:31:55;6.64;56.71
73112;HTU21D;61301;51.956;5.876;2024-01-07T06:34:21;6.64;56.88
73112;HTU21D;61301;51.956;5.876;2024-01-07T06:36:47;6.58;56.93
73112;HTU21D;61301;51.956;5.876;2024-01-07T06:39:13;6.59;56.79
73112;HTU21D;61301;51.956;5.876;2024-01-07T06:41:39;6.66;56.87
73112;HTU21D;61301;51.956;5.876;2024-01-07T06:44:05;6.60;56.39
73112;HTU21D;61301;51.956;5.876;2024-01-07T06:46:31;6.55;56.47
73112;HTU21D;61301;51.956;5.876;2024-01-07T06:49:00;6.51;56.43
73112;HTU21D;61301;51.956;5.876;2024-01-07T06:51:27;6.46;56.81
73112;HTU21D;61301;51.956;5.876;2024-01-07T06:53:52;6.48;56.77
73112;HTU21D;61301;51.956;5.876;2024-01-07T06:56:18;6.54;56.87
73112;HTU21D;61301;51.956;5.876;2024-01-07T06:58:45;6.63;56.10
73112;HTU21D;61301;51.956;5.876;2024-01-07T07:01:11;6.57;56.13
73112;HTU21D;61301;51.956;5.876;2024-01-07T07:03:37;6.57;56.27
73112;HTU21D;61301;51.956;5.876;2024-01-07T07:06:03;6.58;55.64
73112;HTU21D;61301;51.956;5.876;2024-01-07T07:08:29;6.48;55.97
73112;HTU21D;61301;51.956;5.876;2024-01-07T07:10:55;6.40;56.74
73112;HTU21D;61301;51.956;5.876;2024-01-07T07:13:21;6.42;56.53
73112;HTU21D;61301;51.956;5.876;2024-01-07T07:15:47;6.39;56.06
73112;HTU21D;61301;51.956;5.876;2024-01-07T07:18:13;6.35;55.99
73112;HTU21D;61301;51.956;5.876;2024-01-07T07:20:39;6.30;56.06
73112;HTU21D;61301;51.956;5.876;2024-01-07T07:23:05;6.29;55.70
73112;HTU21D;61301;51.956;5.876;2024-01-07T07:25:31;6.20;56.06
73112;HTU21D;61301;51.956;5.876;2024-01-07T07:27:57;6.20;55.80
73112;HTU21D;61301;51.956;5.876;2024-01-07T07:30:23;6.33;55.60
73112;HTU21D;61301;51.956;5.876;2024-01-07T07:32:49;6.20;55.80
73112;HTU21D;61301;51.956;5.876;2024-01-07T07:35:15;6.16;55.81
73112;HTU21D;61301;51.956;5.876;2024-01-07T07:37:41;6.14;55.92
73112;HTU21D;61301;51.956;5.876;2024-01-07T07:40:08;6.13;56.20
73112;HTU21D;61301;51.956;5.876;2024-01-07T07:42:34;6.22;56.30
73112;HTU21D;61301;51.956;5.876;2024-01-07T07:45:00;6.27;56.45
73112;HTU21D;61301;51.956;5.876;2024-01-07T07:47:27;6.45;56.00
73112;HTU21D;61301;51.956;5.876;2024-01-07T07:49:53;6.51;55.62
73112;HTU21D;61301;51.956;5.876;2024-01-07T07:52:19;6.44;55.26
73112;HTU21D;61301;51.956;5.876;2024-01-07T07:54:49;6.40;55.40
73112;HTU21D;61301;51.956;5.876;2024-01-07T07:57:15;6.42;55.50
73112;HTU21D;61301;51.956;5.876;2024-01-07T07:59:41;6.41;55.44
73112;HTU21D;61301;51.956;5.876;2024-01-07T08:02:07;6.43;55.26
73112;HTU21D;61301;51.956;5.876;2024-01-07T08:04:33;6.28;55.03
73112;HTU21D;61301;51.956;5.876;2024-01-07T08:06:59;6.17;54.91
73112;HTU21D;61301;51.956;5.876;2024-01-07T08:09:26;6.08;54.86
73112;HTU21D;61301;51.956;5.876;2024-01-07T08:11:52;6.04;55.52
73112;HTU21D;61301;51.956;5.876;2024-01-07T08:14:18;6.08;55.65
73112;HTU21D;61301;51.956;5.876;2024-01-07T08:16:44;6.11;55.67
73112;HTU21D;61301;51.956;5.876;2024-01-07T08:19:10;6.15;55.76
73112;HTU21D;61301;51.956;5.876;2024-01-07T08:21:36;6.19;54.94
73112;HTU21D;61301;51.956;5.876;2024-01-07T08:24:02;6.17;55.55
73112;HTU21D;61301;51.956;5.876;2024-01-07T08:26:29;6.26;55.42
73112;HTU21D;61301;51.956;5.876;2024-01-07T08:28:57;6.27;54.99
73112;HTU21D;61301;51.956;5.876;2024-01-07T08:31:23;6.22;55.08
73112;HTU21D;61301;51.956;5.876;2024-01-07T08:33:49;6.27;55.13
73112;HTU21D;61301;51.956;5.876;2024-01-07T08:36:15;6.25;54.91
73112;HTU21D;61301;51.956;5.876;2024-01-07T08:38:42;6.28;54.89
73112;HTU21D;61301;51.956;5.876;2024-01-07T08:41:08;6.39;55.01
73112;HTU21D;61301;51.956;5.876;2024-01-07T08:43:34;6.36;53.84
73112;HTU21D;61301;51.956;5.876;2024-01-07T08:46:00;6.24;54.67
73112;HTU21D;61301;51.956;5.876;2024-01-07T08:48:26;6.23;54.53
73112;HTU21D;61301;51.956;5.876;2024-01-07T08:50:52;6.19;54.24
73112;HTU21D;61301;51.956;5.876;2024-01-07T08:53:18;6.12;54.02
73112;HTU21D;61301;51.956;5.876;2024-01-07T08:55:46;5.98;54.70
73112;HTU21D;61301;51.956;5.876;2024-01-07T08:58:12;5.97;54.35
73112;HTU21D;61301;51.956;5.876;2024-01-07T09:00:40;5.98;54.52
73112;HTU21D;61301;51.956;5.876;2024-01-07T09:03:06;5.85;54.49
73112;HTU21D;61301;51.956;5.876;2024-01-07T09:05:32;5.91;54.76
73112;HTU21D;61301;51.956;5.876;2024-01-07T09:07:58;5.86;54.34
73112;HTU21D;61301;51.956;5.876;2024-01-07T09:10:26;5.87;54.01
73112;HTU21D;61301;51.956;5.876;2024-01-07T09:12:52;5.85;54.13
73112;HTU21D;61301;51.956;5.876;2024-01-07T09:15:19;5.83;53.83
73112;HTU21D;61301;51.956;5.876;2024-01-07T09:17:46;5.79;54.17
73112;HTU21D;61301;51.956;5.876;2024-01-07T09:20:13;5.84;54.58
73112;HTU21D;61301;51.956;5.876;2024-01-07T09:22:39;5.91;54.04
73112;HTU21D;61301;51.956;5.876;2024-01-07T09:25:06;5.90;53.84
73112;HTU21D;61301;51.956;5.876;2024-01-07T09:27:33;5.83;53.99
73112;HTU21D;61301;51.956;5.876;2024-01-07T09:29:59;5.89;53.80
73112;HTU21D;61301;51.956;5.876;2024-01-07T09:32:25;5.86;53.69
73112;HTU21D;61301;51.956;5.876;2024-01-07T09:34:51;5.83;54.46
73112;HTU21D;61301;51.956;5.876;2024-01-07T09:37:18;5.95;54.16
73112;HTU21D;61301;51.956;5.876;2024-01-07T09:39:44;5.99;53.56
73112;HTU21D;61301;51.956;5.876;2024-01-07T09:42:16;5.98;54.07
73112;HTU21D;61301;51.956;5.876;2024-01-07T09:44:43;6.04;53.96
73112;HTU21D;61301;51.956;5.876;2024-01-07T09:47:13;6.04;53.62
73112;HTU21D;61301;51.956;5.876;2024-01-07T09:49:40;5.99;54.15
73112;HTU21D;61301;51.956;5.876;2024-01-07T09:52:08;6.07;54.01
73112;HTU21D;61301;51.956;5.876;2024-01-07T09:54:36;6.07;53.55
73112;HTU21D;61301;51.956;5.876;2024-01-07T09:57:05;6.02;53.38
73112;HTU21D;61301;51.956;5.876;2024-01-07T09:59:35;6.00;53.58
73112;HTU21D;61301;51.956;5.876;2024-01-07T10:02:03;6.08;53.59
73112;HTU21D;61301;51.956;5.876;2024-01-07T10:04:29;6.08;53.01
73112;HTU21D;61301;51.956;5.876;2024-01-07T10:06:56;6.02;53.30
73112;HTU21D;61301;51.956;5.876;2024-01-07T10:09:23;6.06;52.94
73112;HTU21D;61301;51.956;5.876;2024-01-07T10:11:49;6.02;52.43
73112;HTU21D;61301;51.956;5.876;2024-01-07T10:14:16;6.00;52.51
73112;HTU21D;61301;51.956;5.876;2024-01-07T10:16:42;5.95;52.66
73112;HTU21D;61301;51.956;5.876;2024-01-07T10:19:08;5.97;52.97
73112;HTU21D;61301;51.956;5.876;2024-01-07T10:21:34;6.05;53.34
73112;HTU21D;61301;51.956;5.876;2024-01-07T10:24:10;6.21;53.20
73112;HTU21D;61301;51.956;5.876;2024-01-07T10:26:42;6.21;52.15
73112;HTU21D;61301;51.956;5.876;2024-01-07T10:29:08;6.15;51.97
73112;HTU21D;61301;51.956;5.876;2024-01-07T10:31:38;6.14;52.24
73112;HTU21D;61301;51.956;5.876;2024-01-07T10:34:09;6.24;52.61
73112;HTU21D;61301;51.956;5.876;2024-01-07T10:36:36;6.30;52.20
73112;HTU21D;61301;51.956;5.876;2024-01-07T10:39:03;6.24;52.27
73112;HTU21D;61301;51.956;5.876;2024-01-07T10:41:29;6.28;52.32
73112;HTU21D;61301;51.956;5.876;2024-01-07T10:43:57;6.38;50.86
73112;HTU21D;61301;51.956;5.876;2024-01-07T10:46:23;6.39;50.30
73112;HTU21D;61301;51.956;5.876;2024-01-07T10:48:58;6.37;50.41
73112;HTU21D;61301;51.956;5.876;2024-01-07T10:51:27;6.37;50.58
73112;HTU21D;61301;51.956;5.876;2024-01-07T10:53:55;6.44;50.86
73112;HTU21D;61301;51.956;5.876;2024-01-07T10:56:23;6.48;49.79
73112;HTU21D;61301;51.956;5.876;2024-01-07T10:58:54;6.45;49.90
73112;HTU21D;61301;51.956;5.876;2024-01-07T11:01:20;6.46;49.54
73112;HTU21D;61301;51.956;5.876;2024-01-07T11:04:10;6.48;49.18
73112;HTU21D;61301;51.956;5.876;2024-01-07T11:06:52;6.41;49.47
73112;HTU21D;61301;51.956;5.876;2024-01-07T11:11:56;6.44;49.42
73112;HTU21D;61301;51.956;5.876;2024-01-07T11:14:42;6.45;49.60
73112;HTU21D;61301;51.956;5.876;2024-01-07T11:17:11;6.40;49.38
73112;HTU21D;61301;51.956;5.876;2024-01-07T11:19:51;6.38;49.27
73112;HTU21D;61301;51.956;5.876;2024-01-07T11:24:49;6.25;49.35
73112;HTU21D;61301;51.956;5.876;2024-01-07T11:27:16;6.29;49.48
73112;HTU21D;61301;51.956;5.876;2024-01-07T11:29:42;6.31;48.89
73112;HTU21D;61301;51.956;5.876;2024-01-07T11:32:12;6.31;48.96
73112;HTU21D;61301;51.956;5.876;2024-01-07T11:34:40;6.29;48.58
73112;HTU21D;61301;51.956;5.876;2024-01-07T11:37:15;6.31;49.08
73112;HTU21D;61301;51.956;5.876;2024-01-07T11:39:45;6.39;49.47
73112;HTU21D;61301;51.956;5.876;2024-01-07T11:42:11;6.43;49.53
73112;HTU21D;61301;51.956;5.876;2024-01-07T11:44:47;6.54;48.70
73112;HTU21D;61301;51.956;5.876;2024-01-07T11:47:16;6.52;48.79
73112;HTU21D;61301;51.956;5.876;2024-01-07T11:49:42;6.58;48.76
73112;HTU21D;61301;51.956;5.876;2024-01-07T11:52:08;6.67;49.04
73112;HTU21D;61301;51.956;5.876;2024-01-07T11:54:37;6.80;48.13
73112;HTU21D;61301;51.956;5.876;2024-01-07T11:57:05;6.78;47.03
73112;HTU21D;61301;51.956;5.876;2024-01-07T11:59:32;6.75;47.42
73112;HTU21D;61301;51.956;5.876;2024-01-07T12:02:03;6.78;46.93
73112;HTU21D;61301;51.956;5.876;2024-01-07T12:04:33;6.84;47.09
73112;HTU21D;61301;51.956;5.876;2024-01-07T12:06:59;6.83;44.81
73112;HTU21D;61301;51.956;5.876;2024-01-07T12:09:26;6.76;44.67
73112;HTU21D;61301;51.956;5.876;2024-01-07T12:11:52;6.75;43.81
73112;HTU21D;61301;51.956;5.876;2024-01-07T12:14:19;6.72;43.69
73112;HTU21D;61301;51.956;5.876;2024-01-07T12:16:46;6.66;43.67
73112;HTU21D;61301;51.956;5.876;2024-01-07T12:19:12;6.69;42.98
73112;HTU21D;61301;51.956;5.876;2024-01-07T12:21:38;6.61;43.62
73112;HTU21D;61301;51.956;5.876;2024-01-07T12:24:06;6.52;44.07
73112;HTU21D;61301;51.956;5.876;2024-01-07T12:26:32;6.51;44.14
73112;HTU21D;61301;51.956;5.876;2024-01-07T12:28:59;6.45;44.89
73112;HTU21D;61301;51.956;5.876;2024-01-07T12:31:31;6.48;45.38
73112;HTU21D;61301;51.956;5.876;2024-01-07T12:33:57;6.63;44.83
73112;HTU21D;61301;51.956;5.876;2024-01-07T12:36:24;6.60;44.96
73112;HTU21D;61301;51.956;5.876;2024-01-07T12:38:51;6.56;44.93
73112;HTU21D;61301;51.956;5.876;2024-01-07T12:41:20;6.61;44.80
73112;HTU21D;61301;51.956;5.876;2024-01-07T12:43:47;6.65;45.17
73112;HTU21D;61301;51.956;5.876;2024-01-07T12:46:13;6.67;44.97
73112;HTU21D;61301;51.956;5.876;2024-01-07T12:48:40;6.71;44.90
73112;HTU21D;61301;51.956;5.876;2024-01-07T12:51:06;6.72;44.50
73112;HTU21D;61301;51.956;5.876;2024-01-07T12:53:32;6.69;43.90
73112;HTU21D;61301;51.956;5.876;2024-01-07T12:55:58;6.58;43.67
73112;HTU21D;61301;51.956;5.876;2024-01-07T12:58:24;6.51;44.12
73112;HTU21D;61301;51.956;5.876;2024-01-07T13:00:50;6.51;43.52
73112;HTU21D;61301;51.956;5.876;2024-01-07T13:03:17;6.44;43.90
73112;HTU21D;61301;51.956;5.876;2024-01-07T13:05:44;6.40;44.17
73112;HTU21D;61301;51.956;5.876;2024-01-07T13:08:10;6.45;43.69
73112;HTU21D;61301;51.956;5.876;2024-01-07T13:10:36;6.45;44.09
73112;HTU21D;61301;51.956;5.876;2024-01-07T13:13:02;6.56;44.26
73112;HTU21D;61301;51.956;5.876;2024-01-07T13:15:29;6.69;44.55
73112;HTU21D;61301;51.956;5.876;2024-01-07T13:17:55;6.74;44.21
73112;HTU21D;61301;51.956;5.876;2024-01-07T13:20:21;6.81;43.96
73112;HTU21D;61301;51.956;5.876;2024-01-07T13:22:47;6.79;44.58
73112;HTU21D;61301;51.956;5.876;2024-01-07T13:25:13;6.85;44.16
73112;HTU21D;61301;51.956;5.876;2024-01-07T13:27:39;6.82;44.20
73112;HTU21D;61301;51.956;5.876;2024-01-07T13:30:05;6.85;42.80
73112;HTU21D;61301;51.956;5.876;2024-01-07T13:32:31;6.75;43.02
73112;HTU21D;61301;51.956;5.876;2024-01-07T13:35:06;6.67;42.82
73112;HTU21D;61301;51.956;5.876;2024-01-07T13:37:36;6.72;43.15
73112;HTU21D;61301;51.956;5.876;2024-01-07T13:40:02;6.54;43.30
73112;HTU21D;61301;51.956;5.876;2024-01-07T13:42:29;6.44;42.89
73112;HTU21D;61301;51.956;5.876;2024-01-07T13:44:55;6.42;42.94
73112;HTU21D;61301;51.956;5.876;2024-01-07T13:47:22;6.54;42.35
73112;HTU21D;61301;51.956;5.876;2024-01-07T13:49:48;6.37;42.51
73112;HTU21D;61301;51.956;5.876;2024-01-07T13:52:14;6.28;42.90
73112;HTU21D;61301;51.956;5.876;2024-01-07T13:54:40;6.24;43.05
73112;HTU21D;61301;51.956;5.876;2024-01-07T13:57:06;6.25;43.22
73112;HTU21D;61301;51.956;5.876;2024-01-07T13:59:32;6.15;43.48
73112;HTU21D;61301;51.956;5.876;2024-01-07T14:01:58;6.09;43.93
73112;HTU21D;61301;51.956;5.876;2024-01-07T14:04:25;6.08;44.20
73112;HTU21D;61301;51.956;5.876;2024-01-07T14:06:55;6.09;44.48
73112;HTU21D;61301;51.956;5.876;2024-01-07T14:09:22;6.07;44.42
73112;HTU21D;61301;51.956;5.876;2024-01-07T14:11:48;6.12;44.39
73112;HTU21D;61301;51.956;5.876;2024-01-07T14:14:14;6.16;43.94
73112;HTU21D;61301;51.956;5.876;2024-01-07T14:16:40;6.22;44.34
73112;HTU21D;61301;51.956;5.876;2024-01-07T14:19:07;6.15;44.29
73112;HTU21D;61301;51.956;5.876;2024-01-07T14:21:32;6.14;44.73
73112;HTU21D;61301;51.956;5.876;2024-01-07T14:23:59;6.26;43.58
73112;HTU21D;61301;51.956;5.876;2024-01-07T14:26:25;6.25;43.57
73112;HTU21D;61301;51.956;5.876;2024-01-07T14:28:51;6.36;43.64
73112;HTU21D;61301;51.956;5.876;2024-01-07T14:31:17;6.49;43.13
73112;HTU21D;61301;51.956;5.876;2024-01-07T14:33:43;6.45;43.41
73112;HTU21D;61301;51.956;5.876;2024-01-07T14:36:09;6.46;43.77
73112;HTU21D;61301;51.956;5.876;2024-01-07T14:38:44;6.87;42.86
73112;HTU21D;61301;51.956;5.876;2024-01-07T14:41:10;6.87;42.44
73112;HTU21D;61301;51.956;5.876;2024-01-07T14:43:36;6.86;42.26
73112;HTU21D;61301;51.956;5.876;2024-01-07T14:46:03;7.15;41.66
73112;HTU21D;61301;51.956;5.876;2024-01-07T14:48:29;7.27;41.69
73112;HTU21D;61301;51.956;5.876;2024-01-07T14:50:56;7.17;41.90
73112;HTU21D;61301;51.956;5.876;2024-01-07T14:53:22;7.11;42.56
73112;HTU21D;61301;51.956;5.876;2024-01-07T14:55:48;7.08;42.77
73112;HTU21D;61301;51.956;5.876;2024-01-07T14:58:14;7.00;41.99
73112;HTU21D;61301;51.956;5.876;2024-01-07T15:00:40;6.85;42.39
73112;HTU21D;61301;51.956;5.876;2024-01-07T15:03:06;6.73;42.64
73112;HTU21D;61301;51.956;5.876;2024-01-07T15:05:32;6.64;43.33
73112;HTU21D;61301;51.956;5.876;2024-01-07T15:07:58;6.75;43.69
73112;HTU21D;61301;51.956;5.876;2024-01-07T15:10:24;6.73;43.67
73112;HTU21D;61301;51.956;5.876;2024-01-07T15:12:50;6.70;43.36
73112;HTU21D;61301;51.956;5.876;2024-01-07T15:15:16;6.65;44.09
73112;HTU21D;61301;51.956;5.876;2024-01-07T15:17:42;6.65;43.87
73112;HTU21D;61301;51.956;5.876;2024-01-07T15:20:09;6.56;43.89
73112;HTU21D;61301;51.956;5.876;2024-01-07T15:22:35;6.46;44.20
73112;HTU21D;61301;51.956;5.876;2024-01-07T15:25:01;6.45;44.13
73112;HTU21D;61301;51.956;5.876;2024-01-07T15:27:28;6.37;44.38
73112;HTU21D;61301;51.956;5.876;2024-01-07T15:29:55;6.37;44.99
73112;HTU21D;61301;51.956;5.876;2024-01-07T15:32:21;6.33;44.83